sensor_id;sensor_type;location;lat;lon;timestamp;P1;durP1;ratioP1;P2;durP2;ratioP2
71176;SDS011;58877;51.992;4.504;2023-02-28T00:01:31;2.79;;;2.75;;
71176;SDS011;58877;51.992;4.504;2023-02-28T00:03:57;2.58;;;2.55;;
71176;SDS011;58877;51.992;4.504;2023-02-28T00:06:23;2.50;;;2.47;;
71176;SDS011;58877;51.992;4.504;2023-02-28T00:08:49;2.47;;;2.45;;
71176;SDS011;58877;51.992;4.504;2023-02-28T00:11:15;2.20;;;2.18;;
71176;SDS011;58877;51.992;4.504;2023-02-28T00:13:42;2.60;;;2.58;;
71176;SDS011;58877;51.992;4.504;2023-02-28T00:16:15;2.81;;;2.77;;
71176;SDS011;58877;51.992;4.504;2023-02-28T00:18:43;2.61;;;2.54;;
71176;SDS011;58877;51.992;4.504;2023-02-28T00:21:09;2.68;;;2.59;;
71176;SDS011;58877;51.992;4.504;2023-02-28T00:23:35;2.65;;;2.59;;
71176;SDS011;58877;51.992;4.504;2023-02-28T00:26:01;2.46;;;2.40;;
71176;SDS011;58877;51.992;4.504;2023-02-28T00:28:26;2.55;;;2.49;;
71176;SDS011;58877;51.992;4.504;2023-02-28T00:30:52;2.70;;;2.66;;
71176;SDS011;58877;51.992;4.504;2023-02-28T00:33:18;2.62;;;2.56;;
71176;SDS011;58877;51.992;4.504;2023-02-28T00:35:44;2.39;;;2.33;;
71176;SDS011;58877;51.992;4.504;2023-02-28T00:38:13;2.72;;;2.65;;
71176;SDS011;58877;51.992;4.504;2023-02-28T00:40:40;2.54;;;2.47;;
71176;SDS011;58877;51.992;4.504;2023-02-28T00:43:06;2.33;;;2.28;;
71176;SDS011;58877;51.992;4.504;2023-02-28T00:45:32;1.98;;;1.94;;
71176;SDS011;58877;51.992;4.504;2023-02-28T00:47:57;2.55;;;2.48;;
71176;SDS011;58877;51.992;4.504;2023-02-28T00:50:23;2.79;;;2.72;;
71176;SDS011;58877;51.992;4.504;2023-02-28T00:52:51;2.44;;;2.38;;
71176;SDS011;58877;51.992;4.504;2023-02-28T00:55:16;2.66;;;2.58;;
71176;SDS011;58877;51.992;4.504;2023-02-28T00:57:43;2.60;;;2.53;;
71176;SDS011;58877;51.992;4.504;2023-02-28T01:00:09;2.57;;;2.48;;
71176;SDS011;58877;51.992;4.504;2023-02-28T01:02:36;2.76;;;2.67;;
71176;SDS011;58877;51.992;4.504;2023-02-28T01:05:01;2.69;;;2.57;;
71176;SDS011;58877;51.992;4.504;2023-02-28T01:07:28;2.69;;;2.56;;
71176;SDS011;58877;51.992;4.504;2023-02-28T01:09:54;2.59;;;2.50;;
71176;SDS011;58877;51.992;4.504;2023-02-28T01:12:19;2.83;;;2.76;;
71176;SDS011;58877;51.992;4.504;2023-02-28T01:14:45;2.25;;;2.20;;
71176;SDS011;58877;51.992;4.504;2023-02-28T01:17:11;2.47;;;2.42;;
71176;SDS011;58877;51.992;4.504;2023-02-28T01:19:36;2.27;;;2.22;;
71176;SDS011;58877;51.992;4.504;2023-02-28T01:22:04;2.59;;;2.57;;
71176;SDS011;58877;51.992;4.504;2023-02-28T01:24:31;2.65;;;2.63;;
71176;SDS011;58877;51.992;4.504;2023-02-28T01:26:58;2.63;;;2.60;;
71176;SDS011;58877;51.992;4.504;2023-02-28T01:29:23;2.47;;;2.43;;
71176;SDS011;58877;51.992;4.504;2023-02-28T01:31:49;2.68;;;2.66;;
71176;SDS011;58877;51.992;4.504;2023-02-28T01:34:15;2.57;;;2.57;;
71176;SDS011;58877;51.992;4.504;2023-02-28T01:36:41;2.72;;;2.72;;
71176;SDS011;58877;51.992;4.504;2023-02-28T01:39:06;2.93;;;2.91;;
71176;SDS011;58877;51.992;4.504;2023-02-28T01:41:33;2.89;;;2.86;;
71176;SDS011;58877;51.992;4.504;2023-02-28T01:44:02;2.61;;;2.58;;
71176;SDS011;58877;51.992;4.504;2023-02-28T01:46:35;2.61;;;2.60;;
71176;SDS011;58877;51.992;4.504;2023-02-28T01:49:14;2.66;;;2.66;;
71176;SDS011;58877;51.992;4.504;2023-02-28T01:51:44;2.65;;;2.64;;
71176;SDS011;58877;51.992;4.504;2023-02-28T01:54:18;2.54;;;2.53;;
71176;SDS011;58877;51.992;4.504;2023-02-28T01:56:56;2.71;;;2.69;;
71176;SDS011;58877;51.992;4.504;2023-02-28T02:02:12;3.00;;;2.98;;
71176;SDS011;58877;51.992;4.504;2023-02-28T02:04:40;2.79;;;2.76;;
71176;SDS011;58877;51.992;4.504;2023-02-28T02:07:32;2.87;;;2.82;;
71176;SDS011;58877;51.992;4.504;2023-02-28T02:10:04;3.22;;;3.18;;
71176;SDS011;58877;51.992;4.504;2023-02-28T02:15:34;2.91;;;2.90;;
71176;SDS011;58877;51.992;4.504;2023-02-28T02:18:08;2.94;;;2.92;;
71176;SDS011;58877;51.992;4.504;2023-02-28T02:23:23;3.68;;;3.66;;
71176;SDS011;58877;51.992;4.504;2023-02-28T02:28:58;3.36;;;3.34;;
71176;SDS011;58877;51.992;4.504;2023-02-28T02:34:56;4.07;;;4.04;;
71176;SDS011;58877;51.992;4.504;2023-02-28T02:42:50;3.76;;;3.75;;
71176;SDS011;58877;51.992;4.504;2023-02-28T02:45:26;4.26;;;4.24;;
71176;SDS011;58877;51.992;4.504;2023-02-28T02:48:21;4.09;;;4.06;;
71176;SDS011;58877;51.992;4.504;2023-02-28T02:50:54;3.77;;;3.74;;
71176;SDS011;58877;51.992;4.504;2023-02-28T02:53:30;4.00;;;3.99;;
71176;SDS011;58877;51.992;4.504;2023-02-28T02:56:02;3.98;;;3.97;;
71176;SDS011;58877;51.992;4.504;2023-02-28T02:58:35;4.06;;;4.05;;
71176;SDS011;58877;51.992;4.504;2023-02-28T03:01:07;4.08;;;4.07;;
71176;SDS011;58877;51.992;4.504;2023-02-28T03:03:39;4.44;;;4.44;;
71176;SDS011;58877;51.992;4.504;2023-02-28T03:06:05;4.15;;;4.14;;
71176;SDS011;58877;51.992;4.504;2023-02-28T03:08:35;4.20;;;4.20;;
71176;SDS011;58877;51.992;4.504;2023-02-28T03:11:04;4.27;;;4.26;;
71176;SDS011;58877;51.992;4.504;2023-02-28T03:13:49;4.22;;;4.21;;
71176;SDS011;58877;51.992;4.504;2023-02-28T03:22:03;3.97;;;3.96;;
71176;SDS011;58877;51.992;4.504;2023-02-28T03:27:53;3.99;;;3.98;;
71176;SDS011;58877;51.992;4.504;2023-02-28T03:30:45;3.94;;;3.94;;
71176;SDS011;58877;51.992;4.504;2023-02-28T03:33:23;4.07;;;4.06;;
71176;SDS011;58877;51.992;4.504;2023-02-28T03:36:04;4.00;;;4.00;;
71176;SDS011;58877;51.992;4.504;2023-02-28T03:38:37;4.13;;;4.13;;
71176;SDS011;58877;51.992;4.504;2023-02-28T03:41:13;4.43;;;4.42;;
71176;SDS011;58877;51.992;4.504;2023-02-28T03:43:55;3.85;;;3.84;;
71176;SDS011;58877;51.992;4.504;2023-02-28T03:46:27;3.86;;;3.83;;
71176;SDS011;58877;51.992;4.504;2023-02-28T03:49:02;4.17;;;4.17;;
71176;SDS011;58877;51.992;4.504;2023-02-28T03:51:37;4.70;;;4.70;;
71176;SDS011;58877;51.992;4.504;2023-02-28T03:54:07;4.51;;;4.51;;
71176;SDS011;58877;51.992;4.504;2023-02-28T03:56:46;4.36;;;4.36;;
71176;SDS011;58877;51.992;4.504;2023-02-28T03:59:17;4.16;;;4.15;;
71176;SDS011;58877;51.992;4.504;2023-02-28T04:01:53;4.54;;;4.53;;
71176;SDS011;58877;51.992;4.504;2023-02-28T04:04:20;4.57;;;4.57;;
71176;SDS011;58877;51.992;4.504;2023-02-28T04:06:49;4.43;;;4.43;;
71176;SDS011;58877;51.992;4.504;2023-02-28T04:09:16;4.68;;;4.68;;
71176;SDS011;58877;51.992;4.504;2023-02-28T04:11:42;4.50;;;4.50;;
71176;SDS011;58877;51.992;4.504;2023-02-28T04:14:12;4.41;;;4.41;;
71176;SDS011;58877;51.992;4.504;2023-02-28T04:16:38;4.46;;;4.46;;
71176;SDS011;58877;51.992;4.504;2023-02-28T04:19:07;4.66;;;4.66;;
71176;SDS011;58877;51.992;4.504;2023-02-28T04:21:34;4.42;;;4.42;;
71176;SDS011;58877;51.992;4.504;2023-02-28T04:24:06;4.12;;;4.12;;
71176;SDS011;58877;51.992;4.504;2023-02-28T04:26:34;4.32;;;4.31;;
71176;SDS011;58877;51.992;4.504;2023-02-28T04:29:03;4.15;;;4.14;;
71176;SDS011;58877;51.992;4.504;2023-02-28T04:31:30;4.66;;;4.64;;
71176;SDS011;58877;51.992;4.504;2023-02-28T04:33:56;4.42;;;4.41;;
71176;SDS011;58877;51.992;4.504;2023-02-28T04:36:22;4.12;;;4.10;;
71176;SDS011;58877;51.992;4.504;2023-02-28T04:38:51;3.93;;;3.93;;
71176;SDS011;58877;51.992;4.504;2023-02-28T04:41:17;4.15;;;4.15;;
71176;SDS011;58877;51.992;4.504;2023-02-28T04:43:44;4.28;;;4.28;;
71176;SDS011;58877;51.992;4.504;2023-02-28T04:46:10;4.20;;;4.20;;
71176;SDS011;58877;51.992;4.504;2023-02-28T04:48:37;4.17;;;4.17;;
71176;SDS011;58877;51.992;4.504;2023-02-28T04:51:05;4.04;;;4.03;;
71176;SDS011;58877;51.992;4.504;2023-02-28T04:53:34;3.89;;;3.88;;
71176;SDS011;58877;51.992;4.504;2023-02-28T04:56:00;4.06;;;4.05;;
71176;SDS011;58877;51.992;4.504;2023-02-28T04:58:26;4.57;;;4.55;;
71176;SDS011;58877;51.992;4.504;2023-02-28T05:00:54;4.01;;;4.00;;
71176;SDS011;58877;51.992;4.504;2023-02-28T05:03:28;4.46;;;4.46;;
71176;SDS011;58877;51.992;4.504;2023-02-28T05:05:56;4.06;;;4.06;;
71176;SDS011;58877;51.992;4.504;2023-02-28T05:08:22;4.19;;;4.18;;
71176;SDS011;58877;51.992;4.504;2023-02-28T05:10:47;4.58;;;4.58;;
71176;SDS011;58877;51.992;4.504;2023-02-28T05:13:13;4.60;;;4.60;;
71176;SDS011;58877;51.992;4.504;2023-02-28T05:15:38;4.62;;;4.61;;
71176;SDS011;58877;51.992;4.504;2023-02-28T05:18:04;5.12;;;5.12;;
71176;SDS011;58877;51.992;4.504;2023-02-28T05:20:30;5.23;;;5.23;;
71176;SDS011;58877;51.992;4.504;2023-02-28T05:22:56;5.77;;;5.77;;
71176;SDS011;58877;51.992;4.504;2023-02-28T05:25:25;6.12;;;6.12;;
71176;SDS011;58877;51.992;4.504;2023-02-28T05:27:51;6.46;;;6.46;;
71176;SDS011;58877;51.992;4.504;2023-02-28T05:30:16;6.12;;;6.12;;
71176;SDS011;58877;51.992;4.504;2023-02-28T05:32:42;6.28;;;6.20;;
71176;SDS011;58877;51.992;4.504;2023-02-28T05:35:09;6.76;;;6.71;;
71176;SDS011;58877;51.992;4.504;2023-02-28T05:37:38;6.32;;;6.29;;
71176;SDS011;58877;51.992;4.504;2023-02-28T05:40:05;6.41;;;6.41;;
71176;SDS011;58877;51.992;4.504;2023-02-28T05:42:32;6.66;;;6.66;;
71176;SDS011;58877;51.992;4.504;2023-02-28T05:44:58;6.43;;;6.43;;
71176;SDS011;58877;51.992;4.504;2023-02-28T05:47:24;6.31;;;6.31;;
71176;SDS011;58877;51.992;4.504;2023-02-28T05:49:50;6.51;;;6.51;;
71176;SDS011;58877;51.992;4.504;2023-02-28T05:52:16;6.62;;;6.62;;
71176;SDS011;58877;51.992;4.504;2023-02-28T05:54:41;6.03;;;6.03;;
71176;SDS011;58877;51.992;4.504;2023-02-28T05:57:07;6.47;;;6.42;;
71176;SDS011;58877;51.992;4.504;2023-02-28T05:59:33;6.27;;;6.23;;
71176;SDS011;58877;51.992;4.504;2023-02-28T06:01:58;6.32;;;6.30;;
71176;SDS011;58877;51.992;4.504;2023-02-28T06:04:24;6.26;;;6.25;;
71176;SDS011;58877;51.992;4.504;2023-02-28T06:06:50;6.53;;;6.53;;
71176;SDS011;58877;51.992;4.504;2023-02-28T06:09:17;6.58;;;6.57;;
71176;SDS011;58877;51.992;4.504;2023-02-28T06:11:43;6.42;;;6.38;;
71176;SDS011;58877;51.992;4.504;2023-02-28T06:14:16;6.52;;;6.52;;
71176;SDS011;58877;51.992;4.504;2023-02-28T06:16:43;6.18;;;6.17;;
71176;SDS011;58877;51.992;4.504;2023-02-28T06:19:09;5.57;;;5.53;;
71176;SDS011;58877;51.992;4.504;2023-02-28T06:21:35;5.69;;;5.65;;
71176;SDS011;58877;51.992;4.504;2023-02-28T06:24:02;4.92;;;4.91;;
71176;SDS011;58877;51.992;4.504;2023-02-28T06:26:29;4.83;;;4.83;;
71176;SDS011;58877;51.992;4.504;2023-02-28T06:28:55;4.93;;;4.91;;
71176;SDS011;58877;51.992;4.504;2023-02-28T06:31:21;4.45;;;4.43;;
71176;SDS011;58877;51.992;4.504;2023-02-28T06:33:48;4.45;;;4.42;;
71176;SDS011;58877;51.992;4.504;2023-02-28T06:36:15;3.99;;;3.99;;
71176;SDS011;58877;51.992;4.504;2023-02-28T06:38:42;4.10;;;4.10;;
71176;SDS011;58877;51.992;4.504;2023-02-28T06:41:09;3.77;;;3.77;;
71176;SDS011;58877;51.992;4.504;2023-02-28T06:43:36;3.66;;;3.66;;
71176;SDS011;58877;51.992;4.504;2023-02-28T06:46:06;3.62;;;3.62;;
71176;SDS011;58877;51.992;4.504;2023-02-28T06:48:34;3.34;;;3.33;;
71176;SDS011;58877;51.992;4.504;2023-02-28T06:51:13;3.67;;;3.66;;
71176;SDS011;58877;51.992;4.504;2023-02-28T06:53:41;3.56;;;3.56;;
71176;SDS011;58877;51.992;4.504;2023-02-28T06:56:08;3.73;;;3.73;;
71176;SDS011;58877;51.992;4.504;2023-02-28T06:58:35;3.46;;;3.46;;
71176;SDS011;58877;51.992;4.504;2023-02-28T07:01:02;3.89;;;3.88;;
71176;SDS011;58877;51.992;4.504;2023-02-28T07:03:28;3.77;;;3.77;;
71176;SDS011;58877;51.992;4.504;2023-02-28T07:05:54;3.78;;;3.78;;
71176;SDS011;58877;51.992;4.504;2023-02-28T07:08:22;4.01;;;3.99;;
71176;SDS011;58877;51.992;4.504;2023-02-28T07:10:51;4.02;;;4.01;;
71176;SDS011;58877;51.992;4.504;2023-02-28T07:13:18;4.52;;;4.51;;
71176;SDS011;58877;51.992;4.504;2023-02-28T07:15:43;4.59;;;4.59;;
71176;SDS011;58877;51.992;4.504;2023-02-28T07:18:09;4.93;;;4.93;;
71176;SDS011;58877;51.992;4.504;2023-02-28T07:20:35;4.69;;;4.68;;
71176;SDS011;58877;51.992;4.504;2023-02-28T07:23:01;5.06;;;5.05;;
71176;SDS011;58877;51.992;4.504;2023-02-28T07:25:27;4.65;;;4.63;;
71176;SDS011;58877;51.992;4.504;2023-02-28T07:27:54;5.09;;;5.02;;
71176;SDS011;58877;51.992;4.504;2023-02-28T07:30:21;4.48;;;4.44;;
71176;SDS011;58877;51.992;4.504;2023-02-28T07:32:47;4.81;;;4.78;;
71176;SDS011;58877;51.992;4.504;2023-02-28T07:35:13;4.49;;;4.49;;
71176;SDS011;58877;51.992;4.504;2023-02-28T07:37:41;4.24;;;4.23;;
71176;SDS011;58877;51.992;4.504;2023-02-28T07:40:08;4.32;;;4.31;;
71176;SDS011;58877;51.992;4.504;2023-02-28T07:42:39;4.31;;;4.31;;
71176;SDS011;58877;51.992;4.504;2023-02-28T07:45:07;4.46;;;4.46;;
71176;SDS011;58877;51.992;4.504;2023-02-28T07:47:39;4.71;;;4.70;;
71176;SDS011;58877;51.992;4.504;2023-02-28T07:50:08;4.56;;;4.54;;
71176;SDS011;58877;51.992;4.504;2023-02-28T07:52:36;4.59;;;4.59;;
71176;SDS011;58877;51.992;4.504;2023-02-28T07:55:02;4.84;;;4.83;;
71176;SDS011;58877;51.992;4.504;2023-02-28T07:57:29;4.03;;;4.03;;
71176;SDS011;58877;51.992;4.504;2023-02-28T07:59:55;4.35;;;4.35;;
71176;SDS011;58877;51.992;4.504;2023-02-28T08:02:21;4.36;;;4.36;;
71176;SDS011;58877;51.992;4.504;2023-02-28T08:04:46;3.92;;;3.92;;
71176;SDS011;58877;51.992;4.504;2023-02-28T08:07:13;4.05;;;4.05;;
71176;SDS011;58877;51.992;4.504;2023-02-28T08:09:39;4.32;;;4.32;;
71176;SDS011;58877;51.992;4.504;2023-02-28T08:12:09;4.31;;;4.27;;
71176;SDS011;58877;51.992;4.504;2023-02-28T08:14:36;4.21;;;4.16;;
71176;SDS011;58877;51.992;4.504;2023-02-28T08:17:02;4.11;;;4.10;;
71176;SDS011;58877;51.992;4.504;2023-02-28T08:19:28;4.04;;;4.04;;
71176;SDS011;58877;51.992;4.504;2023-02-28T08:21:55;4.15;;;4.15;;
71176;SDS011;58877;51.992;4.504;2023-02-28T08:24:21;3.87;;;3.87;;
71176;SDS011;58877;51.992;4.504;2023-02-28T08:26:47;4.54;;;4.54;;
71176;SDS011;58877;51.992;4.504;2023-02-28T08:29:13;4.02;;;4.00;;
71176;SDS011;58877;51.992;4.504;2023-02-28T08:31:38;4.50;;;4.47;;
71176;SDS011;58877;51.992;4.504;2023-02-28T08:34:07;4.40;;;4.40;;
71176;SDS011;58877;51.992;4.504;2023-02-28T08:36:35;4.80;;;4.80;;
71176;SDS011;58877;51.992;4.504;2023-02-28T08:39:02;4.59;;;4.59;;
71176;SDS011;58877;51.992;4.504;2023-02-28T08:41:28;4.83;;;4.82;;
71176;SDS011;58877;51.992;4.504;2023-02-28T08:43:53;5.05;;;5.05;;
71176;SDS011;58877;51.992;4.504;2023-02-28T08:46:19;5.05;;;5.05;;
71176;SDS011;58877;51.992;4.504;2023-02-28T08:48:45;4.93;;;4.93;;
71176;SDS011;58877;51.992;4.504;2023-02-28T08:51:13;4.86;;;4.86;;
71176;SDS011;58877;51.992;4.504;2023-02-28T08:53:43;5.12;;;5.12;;
71176;SDS011;58877;51.992;4.504;2023-02-28T08:56:12;4.87;;;4.85;;
71176;SDS011;58877;51.992;4.504;2023-02-28T08:58:39;5.36;;;5.32;;
71176;SDS011;58877;51.992;4.504;2023-02-28T09:01:09;5.77;;;5.75;;
71176;SDS011;58877;51.992;4.504;2023-02-28T09:03:37;5.17;;;5.17;;
71176;SDS011;58877;51.992;4.504;2023-02-28T09:06:04;5.17;;;5.15;;
71176;SDS011;58877;51.992;4.504;2023-02-28T09:08:30;5.64;;;5.58;;
71176;SDS011;58877;51.992;4.504;2023-02-28T09:10:56;5.73;;;5.69;;
71176;SDS011;58877;51.992;4.504;2023-02-28T09:13:23;5.16;;;5.15;;
71176;SDS011;58877;51.992;4.504;2023-02-28T09:15:50;5.34;;;5.33;;
71176;SDS011;58877;51.992;4.504;2023-02-28T09:18:15;5.14;;;5.14;;
71176;SDS011;58877;51.992;4.504;2023-02-28T09:20:42;5.05;;;5.05;;
71176;SDS011;58877;51.992;4.504;2023-02-28T09:23:08;5.26;;;5.26;;
71176;SDS011;58877;51.992;4.504;2023-02-28T09:25:36;5.14;;;5.14;;
71176;SDS011;58877;51.992;4.504;2023-02-28T09:28:02;5.14;;;5.14;;
71176;SDS011;58877;51.992;4.504;2023-02-28T09:30:28;5.00;;;5.00;;
71176;SDS011;58877;51.992;4.504;2023-02-28T09:32:54;4.74;;;4.71;;
71176;SDS011;58877;51.992;4.504;2023-02-28T09:35:21;4.51;;;4.51;;
71176;SDS011;58877;51.992;4.504;2023-02-28T09:37:48;4.75;;;4.75;;
71176;SDS011;58877;51.992;4.504;2023-02-28T09:40:14;4.68;;;4.68;;
71176;SDS011;58877;51.992;4.504;2023-02-28T09:42:46;4.52;;;4.52;;
71176;SDS011;58877;51.992;4.504;2023-02-28T09:45:24;4.94;;;4.94;;
71176;SDS011;58877;51.992;4.504;2023-02-28T09:48:50;4.74;;;4.74;;
71176;SDS011;58877;51.992;4.504;2023-02-28T09:51:03;5.42;;;5.36;;
71176;SDS011;58877;51.992;4.504;2023-02-28T09:53:37;4.78;;;4.78;;
71176;SDS011;58877;51.992;4.504;2023-02-28T09:56:09;4.89;;;4.88;;
71176;SDS011;58877;51.992;4.504;2023-02-28T09:59:01;4.13;;;4.13;;
71176;SDS011;58877;51.992;4.504;2023-02-28T10:07:05;4.65;;;4.63;;
71176;SDS011;58877;51.992;4.504;2023-02-28T10:09:45;4.61;;;4.61;;
71176;SDS011;58877;51.992;4.504;2023-02-28T10:12:18;5.07;;;5.07;;
71176;SDS011;58877;51.992;4.504;2023-02-28T10:14:45;4.58;;;4.58;;
71176;SDS011;58877;51.992;4.504;2023-02-28T10:17:23;4.40;;;4.38;;
71176;SDS011;58877;51.992;4.504;2023-02-28T10:19:59;4.74;;;4.71;;
71176;SDS011;58877;51.992;4.504;2023-02-28T10:25:21;4.41;;;4.40;;
71176;SDS011;58877;51.992;4.504;2023-02-28T10:27:50;4.50;;;4.50;;
71176;SDS011;58877;51.992;4.504;2023-02-28T10:30:23;3.59;;;3.58;;
71176;SDS011;58877;51.992;4.504;2023-02-28T10:32:52;3.59;;;3.59;;
71176;SDS011;58877;51.992;4.504;2023-02-28T10:35:24;3.99;;;3.99;;
71176;SDS011;58877;51.992;4.504;2023-02-28T10:37:55;3.74;;;3.71;;
71176;SDS011;58877;51.992;4.504;2023-02-28T10:42:55;3.69;;;3.69;;
71176;SDS011;58877;51.992;4.504;2023-02-28T10:45:21;3.90;;;3.90;;
71176;SDS011;58877;51.992;4.504;2023-02-28T10:47:52;3.79;;;3.79;;
71176;SDS011;58877;51.992;4.504;2023-02-28T10:50:28;3.76;;;3.76;;
71176;SDS011;58877;51.992;4.504;2023-02-28T10:53:32;3.81;;;3.81;;
71176;SDS011;58877;51.992;4.504;2023-02-28T10:58:42;4.03;;;4.02;;
71176;SDS011;58877;51.992;4.504;2023-02-28T11:03:55;3.72;;;3.72;;
71176;SDS011;58877;51.992;4.504;2023-02-28T11:06:23;3.28;;;3.28;;
71176;SDS011;58877;51.992;4.504;2023-02-28T11:08:54;3.59;;;3.59;;
71176;SDS011;58877;51.992;4.504;2023-02-28T11:11:24;3.45;;;3.45;;
71176;SDS011;58877;51.992;4.504;2023-02-28T11:13:55;3.12;;;3.12;;
71176;SDS011;58877;51.992;4.504;2023-02-28T11:16:32;3.84;;;3.84;;
71176;SDS011;58877;51.992;4.504;2023-02-28T11:19:01;3.69;;;3.69;;
71176;SDS011;58877;51.992;4.504;2023-02-28T11:23:59;3.45;;;3.45;;
71176;SDS011;58877;51.992;4.504;2023-02-28T11:26:47;2.87;;;2.87;;
71176;SDS011;58877;51.992;4.504;2023-02-28T11:29:18;3.02;;;3.02;;
71176;SDS011;58877;51.992;4.504;2023-02-28T11:34:29;2.84;;;2.84;;
71176;SDS011;58877;51.992;4.504;2023-02-28T11:36:59;2.83;;;2.83;;
71176;SDS011;58877;51.992;4.504;2023-02-28T11:39:30;2.44;;;2.44;;
71176;SDS011;58877;51.992;4.504;2023-02-28T11:58:33;2.83;;;2.83;;
71176;SDS011;58877;51.992;4.504;2023-02-28T12:04:24;2.92;;;2.92;;
71176;SDS011;58877;51.992;4.504;2023-02-28T12:09:29;2.91;;;2.91;;
71176;SDS011;58877;51.992;4.504;2023-02-28T12:12:07;2.49;;;2.49;;
71176;SDS011;58877;51.992;4.504;2023-02-28T12:20:17;2.82;;;2.82;;
71176;SDS011;58877;51.992;4.504;2023-02-28T12:23:07;2.89;;;2.89;;
71176;SDS011;58877;51.992;4.504;2023-02-28T12:28:35;3.16;;;3.16;;
71176;SDS011;58877;51.992;4.504;2023-02-28T12:31:21;2.80;;;2.80;;
71176;SDS011;58877;51.992;4.504;2023-02-28T12:33:52;2.74;;;2.74;;
71176;SDS011;58877;51.992;4.504;2023-02-28T12:36:32;2.74;;;2.74;;
71176;SDS011;58877;51.992;4.504;2023-02-28T12:39:12;2.82;;;2.82;;
71176;SDS011;58877;51.992;4.504;2023-02-28T12:41:54;2.93;;;2.93;;
71176;SDS011;58877;51.992;4.504;2023-02-28T12:44:31;3.16;;;3.16;;
71176;SDS011;58877;51.992;4.504;2023-02-28T12:47:03;3.19;;;3.19;;
71176;SDS011;58877;51.992;4.504;2023-02-28T12:49:40;5.08;;;5.08;;
71176;SDS011;58877;51.992;4.504;2023-02-28T12:52:13;3.48;;;3.48;;
71176;SDS011;58877;51.992;4.504;2023-02-28T12:57:36;2.87;;;2.87;;
71176;SDS011;58877;51.992;4.504;2023-02-28T13:00:14;2.39;;;2.39;;
71176;SDS011;58877;51.992;4.504;2023-02-28T13:03:04;2.87;;;2.87;;
71176;SDS011;58877;51.992;4.504;2023-02-28T13:06:10;2.59;;;2.59;;
71176;SDS011;58877;51.992;4.504;2023-02-28T13:09:09;2.83;;;2.83;;
71176;SDS011;58877;51.992;4.504;2023-02-28T13:19:34;2.76;;;2.73;;
71176;SDS011;58877;51.992;4.504;2023-02-28T13:22:36;2.47;;;2.47;;
71176;SDS011;58877;51.992;4.504;2023-02-28T13:27:50;2.97;;;2.96;;
71176;SDS011;58877;51.992;4.504;2023-02-28T13:33:30;3.26;;;3.26;;
71176;SDS011;58877;51.992;4.504;2023-02-28T13:38:54;3.14;;;3.14;;
71176;SDS011;58877;51.992;4.504;2023-02-28T13:41:43;3.32;;;3.32;;
71176;SDS011;58877;51.992;4.504;2023-02-28T14:08:57;2.83;;;2.83;;
71176;SDS011;58877;51.992;4.504;2023-02-28T14:11:48;2.96;;;2.96;;
71176;SDS011;58877;51.992;4.504;2023-02-28T14:17:03;3.06;;;3.06;;
71176;SDS011;58877;51.992;4.504;2023-02-28T14:19:37;3.09;;;3.09;;
71176;SDS011;58877;51.992;4.504;2023-02-28T14:30:32;4.11;;;4.11;;
71176;SDS011;58877;51.992;4.504;2023-02-28T14:38:39;3.08;;;3.08;;
71176;SDS011;58877;51.992;4.504;2023-02-28T14:41:19;2.83;;;2.83;;
71176;SDS011;58877;51.992;4.504;2023-02-28T14:43:53;2.92;;;2.92;;
71176;SDS011;58877;51.992;4.504;2023-02-28T14:46:28;2.81;;;2.81;;
71176;SDS011;58877;51.992;4.504;2023-02-28T14:49:03;2.65;;;2.65;;
71176;SDS011;58877;51.992;4.504;2023-02-28T14:51:32;2.76;;;2.76;;
71176;SDS011;58877;51.992;4.504;2023-02-28T14:53:59;2.66;;;2.66;;
71176;SDS011;58877;51.992;4.504;2023-02-28T14:56:30;2.73;;;2.73;;
71176;SDS011;58877;51.992;4.504;2023-02-28T14:59:04;2.69;;;2.69;;
71176;SDS011;58877;51.992;4.504;2023-02-28T15:01:31;2.85;;;2.85;;
71176;SDS011;58877;51.992;4.504;2023-02-28T15:03:59;2.58;;;2.58;;
71176;SDS011;58877;51.992;4.504;2023-02-28T15:06:32;2.45;;;2.45;;
71176;SDS011;58877;51.992;4.504;2023-02-28T15:09:13;2.42;;;2.42;;
71176;SDS011;58877;51.992;4.504;2023-02-28T15:11:42;2.28;;;2.28;;
71176;SDS011;58877;51.992;4.504;2023-02-28T15:14:19;2.60;;;2.60;;
71176;SDS011;58877;51.992;4.504;2023-02-28T15:16:57;2.47;;;2.47;;
71176;SDS011;58877;51.992;4.504;2023-02-28T15:19:29;2.43;;;2.43;;
71176;SDS011;58877;51.992;4.504;2023-02-28T15:22:01;2.42;;;2.42;;
71176;SDS011;58877;51.992;4.504;2023-02-28T15:24:39;2.12;;;2.12;;
71176;SDS011;58877;51.992;4.504;2023-02-28T15:27:42;2.48;;;2.48;;
71176;SDS011;58877;51.992;4.504;2023-02-28T15:30:07;2.17;;;2.17;;
71176;SDS011;58877;51.992;4.504;2023-02-28T15:32:40;2.44;;;2.44;;
71176;SDS011;58877;51.992;4.504;2023-02-28T15:35:20;2.42;;;2.42;;
71176;SDS011;58877;51.992;4.504;2023-02-28T15:37:55;2.27;;;2.27;;
71176;SDS011;58877;51.992;4.504;2023-02-28T15:40:27;2.20;;;2.20;;
71176;SDS011;58877;51.992;4.504;2023-02-28T15:48:27;2.05;;;2.05;;
71176;SDS011;58877;51.992;4.504;2023-02-28T15:50:56;2.33;;;2.33;;
71176;SDS011;58877;51.992;4.504;2023-02-28T15:53:25;2.51;;;2.51;;
71176;SDS011;58877;51.992;4.504;2023-02-28T15:56:00;2.43;;;2.43;;
71176;SDS011;58877;51.992;4.504;2023-02-28T15:58:30;2.72;;;2.72;;
71176;SDS011;58877;51.992;4.504;2023-02-28T16:01:00;2.69;;;2.69;;
71176;SDS011;58877;51.992;4.504;2023-02-28T16:03:40;2.26;;;2.26;;
71176;SDS011;58877;51.992;4.504;2023-02-28T16:08:42;2.38;;;2.38;;
71176;SDS011;58877;51.992;4.504;2023-02-28T16:11:09;2.75;;;2.75;;
71176;SDS011;58877;51.992;4.504;2023-02-28T16:13:35;2.81;;;2.81;;
71176;SDS011;58877;51.992;4.504;2023-02-28T16:16:02;2.98;;;2.98;;
71176;SDS011;58877;51.992;4.504;2023-02-28T16:18:28;2.69;;;2.69;;
71176;SDS011;58877;51.992;4.504;2023-02-28T16:20:54;2.92;;;2.92;;
71176;SDS011;58877;51.992;4.504;2023-02-28T16:23:19;2.80;;;2.80;;
71176;SDS011;58877;51.992;4.504;2023-02-28T16:25:45;2.83;;;2.83;;
71176;SDS011;58877;51.992;4.504;2023-02-28T16:28:21;3.00;;;3.00;;
71176;SDS011;58877;51.992;4.504;2023-02-28T16:30:54;2.92;;;2.92;;
71176;SDS011;58877;51.992;4.504;2023-02-28T16:33:20;3.33;;;3.33;;
71176;SDS011;58877;51.992;4.504;2023-02-28T16:35:46;3.49;;;3.49;;
71176;SDS011;58877;51.992;4.504;2023-02-28T16:38:11;3.69;;;3.69;;
71176;SDS011;58877;51.992;4.504;2023-02-28T16:40:37;3.70;;;3.70;;
71176;SDS011;58877;51.992;4.504;2023-02-28T16:43:07;3.38;;;3.38;;
71176;SDS011;58877;51.992;4.504;2023-02-28T16:45:42;3.75;;;3.75;;
71176;SDS011;58877;51.992;4.504;2023-02-28T16:48:13;3.43;;;3.43;;
71176;SDS011;58877;51.992;4.504;2023-02-28T16:50:41;3.66;;;3.66;;
71176;SDS011;58877;51.992;4.504;2023-02-28T16:53:11;3.65;;;3.65;;
71176;SDS011;58877;51.992;4.504;2023-02-28T16:55:36;3.71;;;3.71;;
71176;SDS011;58877;51.992;4.504;2023-02-28T16:58:03;3.87;;;3.87;;
71176;SDS011;58877;51.992;4.504;2023-02-28T17:00:29;3.64;;;3.64;;
71176;SDS011;58877;51.992;4.504;2023-02-28T17:02:56;3.83;;;3.83;;
71176;SDS011;58877;51.992;4.504;2023-02-28T17:05:24;3.95;;;3.95;;
71176;SDS011;58877;51.992;4.504;2023-02-28T17:07:54;3.94;;;3.94;;
71176;SDS011;58877;51.992;4.504;2023-02-28T17:10:21;3.79;;;3.79;;
71176;SDS011;58877;51.992;4.504;2023-02-28T17:12:49;3.66;;;3.66;;
71176;SDS011;58877;51.992;4.504;2023-02-28T17:15:16;3.58;;;3.58;;
71176;SDS011;58877;51.992;4.504;2023-02-28T17:17:43;3.68;;;3.68;;
71176;SDS011;58877;51.992;4.504;2023-02-28T17:20:14;3.97;;;3.97;;
71176;SDS011;58877;51.992;4.504;2023-02-28T17:22:42;4.07;;;4.07;;
71176;SDS011;58877;51.992;4.504;2023-02-28T17:25:08;4.38;;;4.38;;
71176;SDS011;58877;51.992;4.504;2023-02-28T17:27:35;4.39;;;4.39;;
71176;SDS011;58877;51.992;4.504;2023-02-28T17:30:03;4.24;;;4.24;;
71176;SDS011;58877;51.992;4.504;2023-02-28T17:32:39;3.77;;;3.77;;
71176;SDS011;58877;51.992;4.504;2023-02-28T17:35:05;4.28;;;4.28;;
71176;SDS011;58877;51.992;4.504;2023-02-28T17:37:31;4.25;;;4.25;;